Time;durP1;ratioP1;P1;durP2;ratioP2;P2;SDS_P1;SDS_P2;PMS_P1;PMS_P2;Temp;Humidity;BMP_temperature;BMP_pressure;BME280_temperature;BME280_humidity;BME280_pressure;Samples;Min_cycle;Max_cycle;Signal;HPM_P1;HPM_P2
2021/05/20 00:01:38;;;;;;;4.40;4.00;;;;;;;;;;5050072;28;20885;-82
2021/05/20 00:04:04;;;;;;;4.10;3.38;;;;;;;;;;5049753;28;20734;-80
2021/05/20 00:06:30;;;;;;;4.10;3.78;;;;;;;;;;5049974;28;20368;-80
2021/05/20 00:08:56;;;;;;;4.38;3.67;;;;;;;;;;5049824;28;20915;-80
2021/05/20 00:11:22;;;;;;;4.18;3.83;;;;;;;;;;5049726;28;20391;-79
2021/05/20 00:13:48;;;;;;;4.40;4.00;;;;;;;;;;5048134;28;20477;-79
2021/05/20 00:16:14;;;;;;;4.28;3.88;;;;;;;;;;5049696;28;20356;-79
2021/05/20 00:18:40;;;;;;;4.38;3.97;;;;;;;;;;5050168;28;20494;-78
2021/05/20 00:21:06;;;;;;;4.63;3.95;;;;;;;;;;5049635;28;20375;-80
2021/05/20 00:23:32;;;;;;;4.88;4.40;;;;;;;;;;5049538;28;20364;-79
2021/05/20 00:25:58;;;;;;;5.28;4.63;;;;;;;;;;5049514;28;20376;-77
2021/05/20 00:28:24;;;;;;;4.30;3.90;;;;;;;;;;5049323;28;20429;-79
2021/05/20 00:30:50;;;;;;;4.43;4.03;;;;;;;;;;5049870;28;20972;-76
2021/05/20 00:33:16;;;;;;;4.18;3.78;;;;;;;;;;5049331;28;20387;-76
2021/05/20 00:35:42;;;;;;;4.28;3.92;;;;;;;;;;5050013;28;20399;-81
2021/05/20 00:38:09;;;;;;;5.00;4.50;;;;;;;;;;5049067;28;20400;-81
2021/05/20 00:40:35;;;;;;;4.38;3.97;;;;;;;;;;5049212;28;20377;-80
2021/05/20 00:43:01;;;;;;;3.90;3.60;;;;;;;;;;5048852;28;20372;-79
2021/05/20 00:45:27;;;;;;;4.45;4.00;;;;;;;;;;5048737;28;20402;-79
2021/05/20 00:47:53;;;;;;;4.70;3.90;;;;;;;;;;5048730;28;20849;-78
2021/05/20 00:50:19;;;;;;;4.10;3.80;;;;;;;;;;5048885;28;20375;-77
2021/05/20 00:52:45;;;;;;;4.30;3.90;;;;;;;;;;5049164;28;20854;-76
2021/05/20 00:55:12;;;;;;;3.83;3.53;;;;;;;;;;5048810;28;20391;-79
2021/05/20 00:57:40;;;;;;;4.25;3.95;;;;;;;;;;5048973;28;20542;-79
2021/05/20 01:00:08;;;;;;;4.30;3.90;;;;;;;;;;5048677;28;20863;-77
2021/05/20 01:02:38;;;;;;;4.47;4.10;;;;;;;;;;5048759;28;20410;-81
2021/05/20 01:05:08;;;;;;;7.40;3.92;;;;;;;;;;5048608;28;20444;-80
2021/05/20 01:07:35;;;;;;;4.10;3.80;;;;;;;;;;5048890;28;20364;-81
2021/05/20 01:10:01;;;;;;;4.07;3.78;;;;;;;;;;5048726;28;20367;-80
2021/05/20 01:12:27;;;;;;;4.20;3.70;;;;;;;;;;5048777;28;20781;-79
2021/05/20 01:14:53;;;;;;;4.25;3.83;;;;;;;;;;5048698;28;20419;-79
2021/05/20 01:17:19;;;;;;;4.30;3.90;;;;;;;;;;5048553;28;20996;-80
2021/05/20 01:19:46;;;;;;;4.63;4.18;;;;;;;;;;5048588;28;20403;-79
2021/05/20 01:22:12;;;;;;;4.00;3.60;;;;;;;;;;5048774;28;20383;-76
2021/05/20 01:24:39;;;;;;;4.32;3.92;;;;;;;;;;5048680;28;20495;-78
2021/05/20 01:27:06;;;;;;;4.30;3.90;;;;;;;;;;5048414;28;20364;-79
2021/05/20 01:29:32;;;;;;;3.95;3.50;;;;;;;;;;5048574;28;20378;-78
2021/05/20 01:31:59;;;;;;;4.43;4.10;;;;;;;;;;5048621;28;20368;-78
2021/05/20 01:34:25;;;;;;;4.40;4.00;;;;;;;;;;5048523;28;20433;-80
2021/05/20 01:36:51;;;;;;;4.95;4.45;;;;;;;;;;5048412;28;20477;-80
2021/05/20 01:39:17;;;;;;;4.55;4.15;;;;;;;;;;5048446;28;20404;-76
2021/05/20 01:41:42;;;;;;;4.32;3.92;;;;;;;;;;5048231;28;20426;-79
2021/05/20 01:44:08;;;;;;;4.30;4.00;;;;;;;;;;5048123;28;20842;-80
2021/05/20 01:46:34;;;;;;;5.95;4.50;;;;;;;;;;5048509;28;20492;-80
2021/05/20 01:49:00;;;;;;;4.47;4.07;;;;;;;;;;5048441;28;21011;-78
2021/05/20 01:51:28;;;;;;;4.68;4.28;;;;;;;;;;5048904;28;20445;-77
2021/05/20 01:53:56;;;;;;;4.47;4.07;;;;;;;;;;5047220;28;20852;-81
2021/05/20 01:56:24;;;;;;;4.32;4.00;;;;;;;;;;5046880;28;20750;-79
2021/05/20 01:58:50;;;;;;;4.78;4.30;;;;;;;;;;5048062;28;20506;-81
2021/05/20 02:01:16;;;;;;;4.85;4.45;;;;;;;;;;5049102;28;20449;-78
2021/05/20 02:03:42;;;;;;;4.25;3.95;;;;;;;;;;5052395;28;20503;-80
2021/05/20 02:06:09;;;;;;;4.72;4.32;;;;;;;;;;5051821;28;20913;-80
2021/05/20 02:08:35;;;;;;;5.20;4.80;;;;;;;;;;5052420;28;20364;-81
2021/05/20 02:11:02;;;;;;;5.30;4.53;;;;;;;;;;5050732;28;20459;-80
2021/05/20 02:13:28;;;;;;;4.72;4.28;;;;;;;;;;5051932;28;20841;-81
2021/05/20 02:15:54;;;;;;;5.47;4.50;;;;;;;;;;5052115;28;20463;-77
2021/05/20 02:18:20;;;;;;;4.97;4.43;;;;;;;;;;5051504;28;20438;-81
2021/05/20 02:20:46;;;;;;;4.60;4.20;;;;;;;;;;5052427;28;20372;-78
2021/05/20 02:23:13;;;;;;;5.03;4.63;;;;;;;;;;5050459;28;20372;-82
2021/05/20 02:25:39;;;;;;;5.20;4.70;;;;;;;;;;5052041;28;20414;-80
2021/05/20 02:28:05;;;;;;;5.43;4.53;;;;;;;;;;5050433;28;20387;-79
2021/05/20 02:30:31;;;;;;;4.97;4.57;;;;;;;;;;5051997;28;20381;-81
2021/05/20 02:32:57;;;;;;;4.80;4.40;;;;;;;;;;5050310;28;20732;-81
2021/05/20 02:35:24;;;;;;;5.57;5.10;;;;;;;;;;5051425;28;20372;-78
2021/05/20 02:37:50;;;;;;;5.68;4.40;;;;;;;;;;5051664;28;20368;-79
2021/05/20 02:40:16;;;;;;;5.20;4.70;;;;;;;;;;5050253;28;20388;-77
2021/05/20 02:42:43;;;;;;;5.03;4.55;;;;;;;;;;5051909;28;20379;-79
2021/05/20 02:45:10;;;;;;;5.28;4.88;;;;;;;;;;5051451;28;20380;-81
2021/05/20 02:47:36;;;;;;;5.28;4.72;;;;;;;;;;5051717;28;20371;-78
2021/05/20 02:50:04;;;;;;;5.50;4.90;;;;;;;;;;5051461;28;20368;-78
2021/05/20 02:52:30;;;;;;;4.85;4.45;;;;;;;;;;5051961;28;20390;-80
2021/05/20 02:54:56;;;;;;;4.80;4.40;;;;;;;;;;5051368;28;20877;-79
2021/05/20 02:57:22;;;;;;;5.28;4.78;;;;;;;;;;5051649;28;20376;-80
2021/05/20 02:59:48;;;;;;;4.70;4.30;;;;;;;;;;5051236;28;20750;-79
2021/05/20 03:02:14;;;;;;;5.43;4.70;;;;;;;;;;5051733;28;20371;-79
2021/05/20 03:04:40;;;;;;;5.38;4.88;;;;;;;;;;5051737;28;20380;-78
2021/05/20 03:07:07;;;;;;;5.25;4.75;;;;;;;;;;5050693;28;20376;-79
2021/05/20 03:09:34;;;;;;;5.45;4.70;;;;;;;;;;5051885;28;20388;-79
2021/05/20 03:12:00;;;;;;;5.47;4.97;;;;;;;;;;5051045;28;20371;-82
2021/05/20 03:14:26;;;;;;;5.22;4.72;;;;;;;;;;5051738;28;20822;-79
2021/05/20 03:16:53;;;;;;;5.30;4.80;;;;;;;;;;5051397;28;20388;-79
2021/05/20 03:19:19;;;;;;;5.43;4.93;;;;;;;;;;5050142;28;20479;-81
2021/05/20 03:21:45;;;;;;;5.33;4.83;;;;;;;;;;5051540;28;20929;-80
2021/05/20 03:24:11;;;;;;;5.60;5.10;;;;;;;;;;5049985;28;20407;-79
2021/05/20 03:26:37;;;;;;;5.60;5.03;;;;;;;;;;5051578;28;20375;-79
2021/05/20 03:29:03;;;;;;;5.90;5.40;;;;;;;;;;5051399;28;20380;-79
2021/05/20 03:31:29;;;;;;;6.45;5.93;;;;;;;;;;5051664;28;20397;-79
2021/05/20 03:33:55;;;;;;;6.30;5.80;;;;;;;;;;5051412;28;20391;-77
2021/05/20 03:36:21;;;;;;;6.73;6.03;;;;;;;;;;5051020;28;20376;-80
2021/05/20 03:38:47;;;;;;;6.50;5.90;;;;;;;;;;5051621;28;20957;-81
2021/05/20 03:41:13;;;;;;;6.63;5.93;;;;;;;;;;5051517;28;20469;-80
2021/05/20 03:43:39;;;;;;;8.97;6.50;;;;;;;;;;5051244;28;20772;-79
2021/05/20 03:46:06;;;;;;;10.13;7.17;;;;;;;;;;5050629;28;20402;-79
2021/05/20 03:48:32;;;;;;;7.70;7.00;;;;;;;;;;5049739;28;20376;-77
2021/05/20 03:50:59;;;;;;;6.90;6.30;;;;;;;;;;5050775;28;20788;-80
2021/05/20 03:53:29;;;;;;;7.97;7.18;;;;;;;;;;5050720;28;20386;-77
2021/05/20 03:55:56;;;;;;;7.22;6.63;;;;;;;;;;5049256;28;20437;-77
2021/05/20 03:58:22;;;;;;;6.80;6.20;;;;;;;;;;5050282;28;20392;-81
2021/05/20 04:00:48;;;;;;;7.13;6.53;;;;;;;;;;5050967;28;20784;-77
2021/05/20 04:03:23;;;;;;;7.57;6.78;;;;;;;;;;5049311;28;20459;-78
2021/05/20 04:06:08;;;;;;;7.88;7.13;;;;;;;;;;5049353;28;20475;-81
2021/05/20 04:08:38;;;;;;;7.85;7.03;;;;;;;;;;5050581;28;20442;-79
2021/05/20 04:11:04;;;;;;;8.50;7.80;;;;;;;;;;5050493;28;20372;-78
2021/05/20 04:13:35;;;;;;;8.82;8.02;;;;;;;;;;5049963;28;20372;-78
2021/05/20 04:16:01;;;;;;;8.68;7.85;;;;;;;;;;5050324;28;20418;-78
2021/05/20 04:18:27;;;;;;;9.60;8.60;;;;;;;;;;5050073;28;20416;-79
2021/05/20 04:20:53;;;;;;;9.02;8.23;;;;;;;;;;5050144;28;20391;-78
2021/05/20 04:23:20;;;;;;;9.05;8.25;;;;;;;;;;5049185;28;20428;-77
2021/05/20 04:25:46;;;;;;;10.30;9.30;;;;;;;;;;5049784;28;20371;-79
2021/05/20 04:28:12;;;;;;;10.77;9.68;;;;;;;;;;5049570;28;20374;-76
2021/05/20 04:30:38;;;;;;;9.90;9.02;;;;;;;;;;5048224;28;20441;-80
2021/05/20 04:33:05;;;;;;;10.77;9.45;;;;;;;;;;5049914;28;20380;-78
2021/05/20 04:35:31;;;;;;;10.20;9.38;;;;;;;;;;5049730;28;20889;-78
2021/05/20 04:37:57;;;;;;;10.57;9.68;;;;;;;;;;5049749;28;20459;-78
2021/05/20 04:40:23;;;;;;;9.77;8.90;;;;;;;;;;5050306;28;20526;-77
2021/05/20 04:42:49;;;;;;;9.63;8.73;;;;;;;;;;5050499;28;20392;-77
2021/05/20 04:45:15;;;;;;;9.85;8.95;;;;;;;;;;5049602;28;20383;-79
2021/05/20 04:47:43;;;;;;;9.88;8.98;;;;;;;;;;5049660;28;20430;-78
2021/05/20 04:50:10;;;;;;;9.98;9.07;;;;;;;;;;5049522;28;20372;-79
2021/05/20 04:52:36;;;;;;;10.52;8.88;;;;;;;;;;5049459;28;20376;-80
2021/05/20 04:55:02;;;;;;;8.85;8.00;;;;;;;;;;5049399;28;20883;-78
2021/05/20 04:57:28;;;;;;;9.55;8.65;;;;;;;;;;5049383;28;20422;-78
2021/05/20 04:59:54;;;;;;;9.00;8.20;;;;;;;;;;5048819;28;20404;-80
2021/05/20 05:02:20;;;;;;;9.80;8.85;;;;;;;;;;5050027;28;20394;-80
2021/05/20 05:04:46;;;;;;;9.13;8.32;;;;;;;;;;5060191;28;20368;-80
2021/05/20 05:07:12;;;;;;;7.78;7.18;;;;;;;;;;5048759;28;20462;-81
2021/05/20 05:09:38;;;;;;;8.55;7.75;;;;;;;;;;5058600;28;20478;-82
2021/05/20 05:12:04;;;;;;;9.45;8.55;;;;;;;;;;5048920;28;20406;-81
2021/05/20 05:14:30;;;;;;;8.68;7.78;;;;;;;;;;5049473;28;20525;-84
2021/05/20 05:16:56;;;;;;;9.30;8.40;;;;;;;;;;5049209;28;20945;-85
2021/05/20 05:19:22;;;;;;;8.65;7.80;;;;;;;;;;5047958;28;20465;-81
2021/05/20 05:21:48;;;;;;;9.23;7.38;;;;;;;;;;5061222;28;20383;-84
2021/05/20 05:24:14;;;;;;;8.90;8.00;;;;;;;;;;5049162;28;20402;-81
2021/05/20 05:26:41;;;;;;;8.68;7.78;;;;;;;;;;5058810;28;20405;-81
2021/05/20 05:29:08;;;;;;;7.80;7.10;;;;;;;;;;5066003;28;20743;-82
2021/05/20 05:31:36;;;;;;;8.80;7.70;;;;;;;;;;5060446;28;20371;-87
2021/05/20 05:34:02;;;;;;;7.85;7.00;;;;;;;;;;5050343;28;20862;-79
2021/05/20 05:36:28;;;;;;;7.47;6.80;;;;;;;;;;5069305;28;20395;-81
2021/05/20 05:38:54;;;;;;;10.52;7.60;;;;;;;;;;5056740;28;20410;-83
2021/05/20 05:41:20;;;;;;;8.50;7.15;;;;;;;;;;5053770;28;20379;-80
2021/05/20 05:43:46;;;;;;;7.30;6.60;;;;;;;;;;5052498;28;20391;-86
2021/05/20 05:46:12;;;;;;;6.93;6.22;;;;;;;;;;5052812;28;20360;-79
2021/05/20 05:48:38;;;;;;;6.75;6.10;;;;;;;;;;5052288;28;20414;-91
2021/05/20 05:51:07;;;;;;;7.15;6.55;;;;;;;;;;5053429;28;20442;-84
2021/05/20 05:53:33;;;;;;;7.50;6.32;;;;;;;;;;5053581;28;20379;-86
2021/05/20 05:56:01;;;;;;;7.25;6.50;;;;;;;;;;5053322;28;20372;-85
2021/05/20 05:58:27;;;;;;;7.93;6.60;;;;;;;;;;5051985;28;20411;-90
2021/05/20 06:00:53;;;;;;;8.60;6.97;;;;;;;;;;5054375;28;20374;-82
2021/05/20 06:03:20;;;;;;;7.63;6.10;;;;;;;;;;5053562;28;20737;-83
2021/05/20 06:05:47;;;;;;;7.20;6.20;;;;;;;;;;5053600;28;20935;-84
2021/05/20 06:08:13;;;;;;;7.40;6.70;;;;;;;;;;5053603;28;20371;-82
2021/05/20 06:10:39;;;;;;;8.68;6.78;;;;;;;;;;5053515;28;20368;-80
2021/05/20 06:13:05;;;;;;;7.90;6.20;;;;;;;;;;5067920;28;20476;-78
2021/05/20 06:15:31;;;;;;;8.32;6.22;;;;;;;;;;5072396;28;20891;-79
2021/05/20 06:17:57;;;;;;;8.48;5.85;;;;;;;;;;5070024;28;20429;-78
2021/05/20 06:20:23;;;;;;;6.38;5.72;;;;;;;;;;5051630;28;20399;-83
2021/05/20 06:22:49;;;;;;;6.85;4.97;;;;;;;;;;5070652;28;20899;-82
2021/05/20 06:25:15;;;;;;;6.88;4.20;;;;;;;;;;5066827;28;20387;-84
2021/05/20 06:27:41;;;;;;;6.18;4.25;;;;;;;;;;5053694;28;20769;-80
2021/05/20 06:30:08;;;;;;;5.20;4.10;;;;;;;;;;5065401;28;20382;-82
2021/05/20 06:32:36;;;;;;;4.60;3.60;;;;;;;;;;5070133;28;20374;-84
2021/05/20 06:35:03;;;;;;;5.80;4.00;;;;;;;;;;5068851;28;20382;-80
2021/05/20 06:37:29;;;;;;;5.50;4.10;;;;;;;;;;5068840;28;20378;-80
2021/05/20 06:39:55;;;;;;;4.80;3.72;;;;;;;;;;5068566;28;20756;-84
2021/05/20 06:42:21;;;;;;;4.43;3.78;;;;;;;;;;5067653;28;20404;-81
2021/05/20 06:44:49;;;;;;;4.80;3.97;;;;;;;;;;5069202;28;20366;-81
2021/05/20 06:47:15;;;;;;;5.20;3.78;;;;;;;;;;5067578;28;20382;-84
2021/05/20 06:49:41;;;;;;;3.30;3.00;;;;;;;;;;5067522;28;20745;-82
2021/05/20 06:52:07;;;;;;;5.65;3.45;;;;;;;;;;5068548;28;20381;-83
2021/05/20 06:54:33;;;;;;;5.90;3.20;;;;;;;;;;5066792;28;20390;-80
2021/05/20 06:57:04;;;;;;;4.55;3.30;;;;;;;;;;5066716;28;20777;-80
2021/05/20 07:02:16;;;;;;;4.50;3.70;;;;;;;;;;5059496;28;20389;-78
2021/05/20 07:04:42;;;;;;;4.63;3.63;;;;;;;;;;5069254;28;20834;-83
2021/05/20 07:07:08;;;;;;;4.07;3.35;;;;;;;;;;5070563;28;20875;-82
2021/05/20 07:09:36;;;;;;;5.50;3.30;;;;;;;;;;5071254;28;20409;-81
2021/05/20 07:12:03;;;;;;;3.72;3.00;;;;;;;;;;5068900;28;20405;-83
2021/05/20 07:14:29;;;;;;;5.18;2.60;;;;;;;;;;5058980;28;20386;-79
2021/05/20 07:16:55;;;;;;;4.32;2.72;;;;;;;;;;5070512;28;20370;-84
2021/05/20 07:19:21;;;;;;;3.92;2.30;;;;;;;;;;5067532;28;21077;-82
2021/05/20 07:21:47;;;;;;;4.97;2.67;;;;;;;;;;5071017;28;20402;-84
2021/05/20 07:24:13;;;;;;;3.88;2.60;;;;;;;;;;5071247;28;20370;-84
2021/05/20 07:26:39;;;;;;;3.78;2.60;;;;;;;;;;5069285;28;20429;-82
2021/05/20 07:29:06;;;;;;;4.70;2.65;;;;;;;;;;5057666;28;20417;-83
2021/05/20 07:31:32;;;;;;;3.85;2.40;;;;;;;;;;5069334;28;20375;-82
2021/05/20 07:33:58;;;;;;;2.92;2.00;;;;;;;;;;5068723;28;20755;-82
2021/05/20 07:36:24;;;;;;;2.67;1.92;;;;;;;;;;5069980;28;20445;-82
2021/05/20 07:38:50;;;;;;;2.45;1.90;;;;;;;;;;5069751;28;20402;-83
2021/05/20 07:41:17;;;;;;;2.95;2.10;;;;;;;;;;5064699;28;20398;-81
2021/05/20 07:43:43;;;;;;;4.23;2.10;;;;;;;;;;5050343;28;20364;-82
2021/05/20 07:46:10;;;;;;;2.63;2.17;;;;;;;;;;5057934;28;20451;-81
2021/05/20 07:48:36;;;;;;;3.38;2.38;;;;;;;;;;5068925;28;20386;-83
2021/05/20 07:51:02;;;;;;;3.47;2.00;;;;;;;;;;5070294;28;20382;-83
2021/05/20 07:53:29;;;;;;;7.47;2.28;;;;;;;;;;5071005;28;20377;-82
2021/05/20 07:55:55;;;;;;;4.97;2.00;;;;;;;;;;5065341;28;20404;-82
2021/05/20 07:58:21;;;;;;;3.88;2.03;;;;;;;;;;5048838;28;20388;-78
2021/05/20 08:00:47;;;;;;;2.10;1.77;;;;;;;;;;5054175;28;20389;-83
2021/05/20 08:03:26;;;;;;;3.35;2.35;;;;;;;;;;5067796;28;20428;-83
2021/05/20 08:11:05;;;;;;;2.53;1.90;;;;;;;;;;5050800;28;20387;-84
2021/05/20 08:13:31;;;;;;;5.20;2.20;;;;;;;;;;5050606;28;20450;-82
2021/05/20 08:15:58;;;;;;;3.00;1.95;;;;;;;;;;5053530;28;20463;-87
2021/05/20 08:18:24;;;;;;;4.13;2.13;;;;;;;;;;5048726;28;21035;-80
2021/05/20 08:20:50;;;;;;;4.40;2.00;;;;;;;;;;5068101;28;20389;-82
2021/05/20 08:23:16;;;;;;;3.58;2.05;;;;;;;;;;5069525;28;20378;-82
2021/05/20 08:25:42;;;;;;;4.18;2.40;;;;;;;;;;5050848;28;20395;-83
2021/05/20 08:28:08;;;;;;;3.70;2.22;;;;;;;;;;5049123;28;20371;-82
2021/05/20 08:30:34;;;;;;;2.97;2.10;;;;;;;;;;5056291;28;20423;-82
2021/05/20 08:33:00;;;;;;;2.45;2.00;;;;;;;;;;5058125;28;20864;-83
2021/05/20 08:35:26;;;;;;;2.73;1.87;;;;;;;;;;5059769;28;20386;-83
2021/05/20 08:37:53;;;;;;;2.87;1.80;;;;;;;;;;5057229;28;20866;-79
2021/05/20 08:40:19;;;;;;;4.67;2.00;;;;;;;;;;5057775;28;20725;-81
2021/05/20 08:42:45;;;;;;;4.85;1.80;;;;;;;;;;5062018;28;20492;-83
2021/05/20 08:45:15;;;;;;;2.88;1.98;;;;;;;;;;5057461;28;20384;-82
2021/05/20 08:47:42;;;;;;;3.97;2.10;;;;;;;;;;5055300;28;20822;-82
2021/05/20 08:50:12;;;;;;;2.83;2.00;;;;;;;;;;5055963;28;20390;-84
2021/05/20 08:52:39;;;;;;;3.05;1.80;;;;;;;;;;5056420;28;20468;-78
2021/05/20 08:55:11;;;;;;;2.20;2.00;;;;;;;;;;5048059;28;20379;-82
2021/05/20 08:57:37;;;;;;;3.90;2.58;;;;;;;;;;5058526;28;20472;-84
2021/05/20 09:00:07;;;;;;;4.88;2.78;;;;;;;;;;5068705;28;20454;-79
2021/05/20 09:02:33;;;;;;;3.88;2.40;;;;;;;;;;5068185;28;20880;-81
2021/05/20 09:05:20;;;;;;;3.90;2.28;;;;;;;;;;5069556;28;20410;-82
2021/05/20 09:07:57;;;;;;;5.53;2.70;;;;;;;;;;5067793;28;20370;-82
2021/05/20 09:10:24;;;;;;;3.73;2.30;;;;;;;;;;5068226;28;20374;-81
2021/05/20 09:12:51;;;;;;;3.58;2.38;;;;;;;;;;5069709;28;20444;-80
2021/05/20 09:15:20;;;;;;;4.00;2.63;;;;;;;;;;5069176;28;20402;-84
2021/05/20 09:17:46;;;;;;;3.33;2.50;;;;;;;;;;5068611;28;20377;-86
2021/05/20 09:20:13;;;;;;;4.40;2.80;;;;;;;;;;5068400;28;21280;-84
2021/05/20 09:22:40;;;;;;;3.30;2.10;;;;;;;;;;5069240;28;20378;-84
2021/05/20 09:25:07;;;;;;;3.05;2.20;;;;;;;;;;5069615;28;20374;-83
2021/05/20 09:27:35;;;;;;;3.72;2.70;;;;;;;;;;5068376;28;20389;-84
2021/05/20 09:30:17;;;;;;;3.00;2.50;;;;;;;;;;5068242;28;20808;-81
2021/05/20 09:33:07;;;;;;;3.08;2.58;;;;;;;;;;5068951;28;20382;-83
2021/05/20 09:35:36;;;;;;;4.10;2.77;;;;;;;;;;5067890;28;20366;-81
2021/05/20 09:38:02;;;;;;;3.17;2.87;;;;;;;;;;5068728;28;20744;-81
2021/05/20 09:40:30;;;;;;;3.20;2.67;;;;;;;;;;5068567;28;20923;-81
2021/05/20 09:42:56;;;;;;;3.72;2.42;;;;;;;;;;5067070;28;20386;-82
2021/05/20 09:45:24;;;;;;;3.67;2.90;;;;;;;;;;5068806;28;20370;-81
2021/05/20 09:47:50;;;;;;;3.40;3.10;;;;;;;;;;5067985;28;20808;-80
2021/05/20 09:50:19;;;;;;;4.22;3.55;;;;;;;;;;5069138;28;20370;-81
2021/05/20 09:52:45;;;;;;;3.85;3.30;;;;;;;;;;5067738;28;20459;-80
2021/05/20 09:55:22;;;;;;;6.32;4.05;;;;;;;;;;5070581;28;20373;-82
2021/05/20 09:57:48;;;;;;;4.05;3.25;;;;;;;;;;5070249;28;20819;-82
2021/05/20 10:00:20;;;;;;;3.75;2.83;;;;;;;;;;5068702;28;20984;-83
2021/05/20 10:02:46;;;;;;;6.40;3.20;;;;;;;;;;5062368;28;20389;-83
2021/05/20 10:05:21;;;;;;;5.80;3.10;;;;;;;;;;5066849;28;21184;-84
2021/05/20 10:07:48;;;;;;;3.47;3.17;;;;;;;;;;5065222;28;20407;-86
2021/05/20 10:10:15;;;;;;;3.47;3.17;;;;;;;;;;5065893;28;20495;-82
2021/05/20 10:12:44;;;;;;;4.00;3.40;;;;;;;;;;5069185;28;20381;-83
2021/05/20 10:15:19;;;;;;;3.00;2.65;;;;;;;;;;5072021;28;20386;-82
2021/05/20 10:17:46;;;;;;;2.97;2.67;;;;;;;;;;5075902;28;20370;-84
2021/05/20 10:20:13;;;;;;;4.25;2.55;;;;;;;;;;5077056;28;20401;-82
2021/05/20 10:22:39;;;;;;;2.75;2.55;;;;;;;;;;5081149;28;20404;-81
2021/05/20 10:25:06;;;;;;;2.58;2.10;;;;;;;;;;5083707;28;20397;-82
2021/05/20 10:27:33;;;;;;;3.10;2.20;;;;;;;;;;5082729;28;20374;-81
2021/05/20 10:30:00;;;;;;;5.30;2.58;;;;;;;;;;5082873;28;20386;-81
2021/05/20 10:32:27;;;;;;;3.40;2.13;;;;;;;;;;5081394;28;20409;-81
2021/05/20 10:35:04;;;;;;;2.40;2.15;;;;;;;;;;5081087;28;20396;-81
2021/05/20 10:37:39;;;;;;;2.85;1.80;;;;;;;;;;5075027;28;20378;-84
2021/05/20 10:40:21;;;;;;;1.55;1.30;;;;;;;;;;5074608;28;20401;-83
2021/05/20 10:42:47;;;;;;;3.20;1.50;;;;;;;;;;5073134;28;20921;-82
2021/05/20 10:45:20;;;;;;;3.00;1.50;;;;;;;;;;5071794;28;20398;-82
2021/05/20 10:48:05;;;;;;;2.70;1.20;;;;;;;;;;5072227;28;20454;-85
2021/05/20 10:50:45;;;;;;;2.00;1.30;;;;;;;;;;5073507;28;20408;-84
2021/05/20 10:53:12;;;;;;;2.95;1.38;;;;;;;;;;5072454;28;20409;-81
2021/05/20 10:55:38;;;;;;;1.90;1.20;;;;;;;;;;5072405;28;21262;-83
2021/05/20 10:58:05;;;;;;;1.10;1.00;;;;;;;;;;5072948;28;20860;-85
2021/05/20 11:00:30;;;;;;;3.47;1.20;;;;;;;;;;5072606;28;20405;-87
2021/05/20 11:02:58;;;;;;;5.15;1.85;;;;;;;;;;5072221;28;20374;-82
2021/05/20 11:05:43;;;;;;;2.15;1.30;;;;;;;;;;5069923;28;21087;-82
2021/05/20 11:08:10;;;;;;;2.47;1.60;;;;;;;;;;5070713;28;20382;-86
2021/05/20 11:10:37;;;;;;;3.00;1.20;;;;;;;;;;5072434;28;20469;-84
2021/05/20 11:13:03;;;;;;;2.47;1.10;;;;;;;;;;5072792;28;20377;-80
2021/05/20 11:15:29;;;;;;;4.47;1.50;;;;;;;;;;5073277;28;20392;-84
2021/05/20 11:17:55;;;;;;;3.13;1.30;;;;;;;;;;5072860;28;20409;-81
2021/05/20 11:20:25;;;;;;;2.38;1.20;;;;;;;;;;5072395;28;20441;-83
2021/05/20 11:23:10;;;;;;;2.03;1.25;;;;;;;;;;5073689;28;20378;-79
2021/05/20 11:25:36;;;;;;;2.00;1.20;;;;;;;;;;5084626;28;20401;-85
2021/05/20 11:28:07;;;;;;;2.25;1.33;;;;;;;;;;5083648;28;20374;-80
2021/05/20 11:30:33;;;;;;;2.13;1.17;;;;;;;;;;5084896;28;20469;-82
2021/05/20 11:33:00;;;;;;;2.60;1.40;;;;;;;;;;5082497;28;20389;-80
2021/05/20 11:35:42;;;;;;;3.67;1.60;;;;;;;;;;5082757;28;20435;-83
2021/05/20 11:38:26;;;;;;;3.70;1.70;;;;;;;;;;5085313;28;20378;-83
2021/05/20 11:40:53;;;;;;;3.85;2.15;;;;;;;;;;5080328;28;20477;-80
2021/05/20 11:43:28;;;;;;;5.88;2.03;;;;;;;;;;5080102;28;20382;-79
2021/05/20 11:45:54;;;;;;;2.00;1.80;;;;;;;;;;5075153;28;20366;-79
2021/05/20 11:48:20;;;;;;;3.60;1.80;;;;;;;;;;5077939;28;20374;-80
2021/05/20 11:50:50;;;;;;;2.40;1.50;;;;;;;;;;5081194;28;20374;-82
2021/05/20 11:53:16;;;;;;;2.05;1.77;;;;;;;;;;5075841;28;20366;-80
2021/05/20 11:55:43;;;;;;;2.72;1.90;;;;;;;;;;5073731;28;20375;-79
2021/05/20 11:58:09;;;;;;;3.75;1.80;;;;;;;;;;5070674;28;20362;-83
2021/05/20 12:00:35;;;;;;;4.60;1.90;;;;;;;;;;5068256;28;20413;-82
2021/05/20 12:03:03;;;;;;;2.50;1.77;;;;;;;;;;5070255;28;20385;-80
2021/05/20 12:05:29;;;;;;;5.50;1.90;;;;;;;;;;5068193;28;20406;-79
2021/05/20 12:07:55;;;;;;;2.63;1.60;;;;;;;;;;5069986;28;20424;-81
2021/05/20 12:10:22;;;;;;;2.30;1.80;;;;;;;;;;5069652;28;20382;-79
2021/05/20 12:13:02;;;;;;;2.90;1.83;;;;;;;;;;5060365;28;20378;-83
2021/05/20 12:15:30;;;;;;;2.30;1.40;;;;;;;;;;5051612;28;20739;-85
2021/05/20 12:18:00;;;;;;;2.70;1.40;;;;;;;;;;5066380;28;20374;-86
2021/05/20 12:20:27;;;;;;;2.47;1.20;;;;;;;;;;5066384;28;20401;-86
2021/05/20 12:22:53;;;;;;;4.13;1.45;;;;;;;;;;5067139;28;20409;-84
2021/05/20 12:25:23;;;;;;;2.17;1.20;;;;;;;;;;5066060;28;20461;-83
2021/05/20 12:27:54;;;;;;;2.80;1.00;;;;;;;;;;5065253;28;20389;-81
2021/05/20 12:30:22;;;;;;;3.03;1.00;;;;;;;;;;5066377;28;21077;-85
2021/05/20 12:32:48;;;;;;;2.83;1.17;;;;;;;;;;5065324;28;20377;-80
2021/05/20 12:35:14;;;;;;;2.58;1.00;;;;;;;;;;5065562;28;20397;-82
2021/05/20 12:37:42;;;;;;;2.30;1.00;;;;;;;;;;5065058;28;20382;-82
2021/05/20 12:40:16;;;;;;;0.80;0.80;;;;;;;;;;5063991;28;20406;-79
2021/05/20 12:42:42;;;;;;;1.73;1.00;;;;;;;;;;5064980;28;20469;-81
2021/05/20 12:45:08;;;;;;;3.78;1.48;;;;;;;;;;5065196;28;20424;-82
2021/05/20 12:47:48;;;;;;;1.98;0.85;;;;;;;;;;5065914;28;20882;-81
2021/05/20 12:50:25;;;;;;;3.15;1.10;;;;;;;;;;5065737;28;20362;-82
2021/05/20 12:52:51;;;;;;;2.55;1.02;;;;;;;;;;5065730;28;20540;-82
2021/05/20 12:55:19;;;;;;;3.55;1.05;;;;;;;;;;5064694;28;20958;-81
2021/05/20 12:57:55;;;;;;;3.20;1.05;;;;;;;;;;5066760;28;20374;-80
2021/05/20 13:00:21;;;;;;;2.13;1.13;;;;;;;;;;5069276;28;20891;-83
2021/05/20 13:02:57;;;;;;;1.30;0.88;;;;;;;;;;5067683;28;20370;-81
2021/05/20 13:05:24;;;;;;;4.32;1.30;;;;;;;;;;5068284;28;20820;-81
2021/05/20 13:07:50;;;;;;;1.30;1.00;;;;;;;;;;5068176;28;20431;-83
2021/05/20 13:10:30;;;;;;;1.80;1.10;;;;;;;;;;5068721;28;20456;-85
2021/05/20 13:12:56;;;;;;;2.58;1.30;;;;;;;;;;5068358;28;20386;-82
2021/05/20 13:15:23;;;;;;;2.25;0.98;;;;;;;;;;5068086;28;20362;-81
2021/05/20 13:18:22;;;;;;;2.15;1.20;;;;;;;;;;5068300;28;20362;-82
2021/05/20 13:23:31;;;;;;;2.33;1.02;;;;;;;;;;5069069;28;20465;-81
2021/05/20 13:25:57;;;;;;;1.92;1.05;;;;;;;;;;5068197;28;20376;-80
2021/05/20 13:28:26;;;;;;;3.20;1.15;;;;;;;;;;5068663;28;20423;-83
2021/05/20 13:30:58;;;;;;;1.90;1.00;;;;;;;;;;5067408;28;20457;-84
2021/05/20 13:33:30;;;;;;;3.70;1.08;;;;;;;;;;5068200;28;20429;-83
2021/05/20 13:36:00;;;;;;;1.83;1.00;;;;;;;;;;5068353;28;20370;-81
2021/05/20 13:38:26;;;;;;;2.38;1.25;;;;;;;;;;5066705;28;20880;-80
2021/05/20 13:40:56;;;;;;;4.83;1.10;;;;;;;;;;5068227;28;20416;-82
2021/05/20 13:43:22;;;;;;;2.03;1.10;;;;;;;;;;5066350;28;20410;-82
2021/05/20 13:45:49;;;;;;;3.92;1.40;;;;;;;;;;5068719;28;20374;-84
2021/05/20 13:48:15;;;;;;;2.22;1.00;;;;;;;;;;5068796;28;20378;-84
2021/05/20 13:50:43;;;;;;;2.40;1.17;;;;;;;;;;5067929;28;20412;-84
2021/05/20 13:53:09;;;;;;;2.50;1.10;;;;;;;;;;5068067;28;20384;-83
2021/05/20 13:55:35;;;;;;;3.28;1.00;;;;;;;;;;5067505;28;21379;-84
2021/05/20 13:58:01;;;;;;;2.67;1.30;;;;;;;;;;5070927;28;20378;-84
2021/05/20 14:00:32;;;;;;;3.00;1.00;;;;;;;;;;5071767;28;20408;-83
2021/05/20 14:03:01;;;;;;;3.75;1.23;;;;;;;;;;5070844;28;20863;-85
2021/05/20 14:05:27;;;;;;;3.77;1.00;;;;;;;;;;5070584;28;20393;-81
2021/05/20 14:07:53;;;;;;;2.35;1.00;;;;;;;;;;5070628;28;20754;-84
2021/05/20 14:10:19;;;;;;;2.72;1.20;;;;;;;;;;5071921;28;20453;-84
2021/05/20 14:12:46;;;;;;;6.00;1.20;;;;;;;;;;5072025;28;20395;-86
2021/05/20 14:15:13;;;;;;;5.13;1.20;;;;;;;;;;5071601;28;20369;-83
2021/05/20 14:17:44;;;;;;;6.82;1.30;;;;;;;;;;5066074;28;20381;-85
2021/05/20 14:20:11;;;;;;;3.25;1.10;;;;;;;;;;5062026;28;20470;-85
2021/05/20 14:22:37;;;;;;;3.17;1.00;;;;;;;;;;5060969;28;20396;-83
2021/05/20 14:25:04;;;;;;;1.67;0.90;;;;;;;;;;5061109;28;20457;-83
2021/05/20 14:27:30;;;;;;;5.93;1.23;;;;;;;;;;5061855;28;20383;-87
2021/05/20 14:29:56;;;;;;;3.50;1.17;;;;;;;;;;5058783;28;20379;-87
2021/05/20 14:32:24;;;;;;;2.60;0.82;;;;;;;;;;5060275;28;20861;-82
2021/05/20 14:34:50;;;;;;;2.00;0.93;;;;;;;;;;5062128;28;20845;-85
2021/05/20 14:37:16;;;;;;;4.93;1.70;;;;;;;;;;5059474;28;20454;-84
2021/05/20 14:39:43;;;;;;;1.98;0.82;;;;;;;;;;5059730;28;20406;-83
2021/05/20 14:42:09;;;;;;;3.00;1.30;;;;;;;;;;5057327;28;20392;-84
2021/05/20 14:44:36;;;;;;;1.73;0.93;;;;;;;;;;5058763;28;20383;-84
2021/05/20 14:47:02;;;;;;;5.57;1.55;;;;;;;;;;5060128;28;20383;-82
2021/05/20 14:49:41;;;;;;;3.83;1.40;;;;;;;;;;5059954;28;20379;-83
2021/05/20 14:55:24;;;;;;;2.33;1.30;;;;;;;;;;5056146;28;20889;-84
2021/05/20 15:08:25;;;;;;;3.15;1.67;;;;;;;;;;5056487;28;20909;-83
2021/05/20 15:11:10;;;;;;;3.73;1.10;;;;;;;;;;5060073;28;20382;-85